createdAt,value
2022-12-18T00:00:49.649Z,1027.33
2022-12-18T00:01:48.376Z,1027.36
2022-12-18T00:02:49.289Z,1027.35
2022-12-18T00:03:48.833Z,1027.37
2022-12-18T00:04:48.298Z,1027.38
2022-12-18T00:05:48.246Z,1027.40
2022-12-18T00:06:48.253Z,1027.41
2022-12-18T00:07:48.200Z,1027.44
2022-12-18T00:08:48.209Z,1027.50
2022-12-18T00:09:48.410Z,1027.39
2022-12-18T00:10:49.203Z,1027.47
2022-12-18T00:11:49.890Z,1027.46
2022-12-18T00:12:48.805Z,1027.42
2022-12-18T00:13:48.912Z,1027.45
2022-12-18T00:14:48.120Z,1027.40
2022-12-18T00:15:48.213Z,1027.55
2022-12-18T00:16:48.151Z,1027.47
2022-12-18T00:17:48.171Z,1027.51
2022-12-18T00:18:48.142Z,1027.50
2022-12-18T00:19:48.072Z,1027.46
2022-12-18T00:20:48.073Z,1027.41
2022-12-18T00:21:48.093Z,1027.47
2022-12-18T00:22:48.059Z,1027.45
2022-12-18T00:23:48.058Z,1027.45
2022-12-18T00:24:48.032Z,1027.44
2022-12-18T00:25:48.028Z,1027.43
2022-12-18T00:26:48.028Z,1027.40
2022-12-18T00:27:48.036Z,1027.37
2022-12-18T00:28:48.017Z,1027.42
2022-12-18T00:29:48.734Z,1027.39
2022-12-18T00:30:47.973Z,1027.36
2022-12-18T00:31:48.021Z,1027.40
2022-12-18T00:32:47.943Z,1027.40
2022-12-18T00:33:47.953Z,1027.38
2022-12-18T00:34:47.924Z,1027.35
2022-12-18T00:35:47.976Z,1027.33
2022-12-18T00:36:48.703Z,1027.33
2022-12-18T00:37:48.000Z,1027.34
2022-12-18T00:38:47.938Z,1027.33
2022-12-18T00:39:48.005Z,1027.31
2022-12-18T00:40:47.933Z,1027.30
2022-12-18T00:41:47.912Z,1027.28
2022-12-18T00:42:47.973Z,1027.28
2022-12-18T00:43:49.405Z,1027.34
2022-12-18T00:44:48.452Z,1027.33
2022-12-18T00:45:48.069Z,1027.37
2022-12-18T00:46:47.856Z,1027.36
2022-12-18T00:47:47.825Z,1027.40
2022-12-18T00:48:47.794Z,1027.39
2022-12-18T00:49:47.799Z,1027.42
2022-12-18T00:50:47.794Z,1027.41
2022-12-18T00:51:47.775Z,1027.32
2022-12-18T00:52:56.804Z,1027.38
2022-12-18T00:53:56.852Z,1027.33
2022-12-18T00:54:47.760Z,1027.33
2022-12-18T00:55:47.731Z,1027.35
2022-12-18T00:56:49.830Z,1027.27
2022-12-18T00:57:47.706Z,1027.31
2022-12-18T00:58:47.701Z,1027.30
2022-12-18T00:59:47.700Z,1027.26
2022-12-18T01:00:47.780Z,1027.27
2022-12-18T01:01:48.007Z,1027.29
2022-12-18T01:02:47.803Z,1027.31
2022-12-18T01:03:47.679Z,1027.30
2022-12-18T01:04:47.636Z,1027.31
2022-12-18T01:05:47.660Z,1027.34
2022-12-18T01:06:47.633Z,1027.35
2022-12-18T01:07:47.613Z,1027.35
2022-12-18T01:08:47.603Z,1027.33
2022-12-18T01:09:47.611Z,1027.38
2022-12-18T01:10:47.589Z,1027.36
2022-12-18T01:11:47.600Z,1027.37
2022-12-18T01:12:47.557Z,1027.39
2022-12-18T01:13:47.553Z,1027.38
2022-12-18T01:14:47.592Z,1027.37
2022-12-18T01:15:47.538Z,1027.36
2022-12-18T01:16:47.634Z,1027.42
2022-12-18T01:17:47.525Z,1027.39
2022-12-18T01:18:47.518Z,1027.41
2022-12-18T01:19:47.503Z,1027.44
2022-12-18T01:20:47.507Z,1027.49
2022-12-18T01:21:47.506Z,1027.51
2022-12-18T01:22:47.549Z,1027.51
2022-12-18T01:23:47.577Z,1027.49
2022-12-18T01:24:47.538Z,1027.56
2022-12-18T01:25:47.475Z,1027.54
2022-12-18T01:26:47.534Z,1027.56
2022-12-18T01:27:47.452Z,1027.55
2022-12-18T01:28:47.473Z,1027.60
2022-12-18T01:29:47.432Z,1027.62
2022-12-18T01:30:47.410Z,1027.65
2022-12-18T01:31:47.444Z,1027.63
2022-12-18T01:32:47.393Z,1027.67
2022-12-18T01:33:47.357Z,1027.68
2022-12-18T01:34:47.436Z,1027.67
2022-12-18T01:35:47.344Z,1027.72
2022-12-18T01:36:47.350Z,1027.67
2022-12-18T01:37:47.346Z,1027.68
2022-12-18T01:38:47.344Z,1027.72
2022-12-18T01:39:47.306Z,1027.74
2022-12-18T01:40:47.342Z,1027.67
2022-12-18T01:41:47.306Z,1027.72
2022-12-18T01:42:47.460Z,1027.66
2022-12-18T01:43:47.290Z,1027.66
2022-12-18T01:44:48.275Z,1027.65
2022-12-18T01:45:47.842Z,1027.70
2022-12-18T01:46:47.348Z,1027.67
2022-12-18T01:47:47.326Z,1027.74
2022-12-18T01:48:50.785Z,1027.76
2022-12-18T01:49:47.241Z,1027.78
2022-12-18T01:50:56.778Z,1027.74
2022-12-18T01:51:47.778Z,1027.74
2022-12-18T01:52:52.607Z,1027.74
2022-12-18T01:53:47.206Z,1027.77
2022-12-18T01:54:48.284Z,1027.80
2022-12-18T01:55:47.276Z,1027.74
2022-12-18T01:56:47.159Z,1027.72
2022-12-18T01:57:49.273Z,1027.79
2022-12-18T01:58:47.122Z,1027.70
2022-12-18T01:59:47.154Z,1027.72
2022-12-18T02:00:47.187Z,1027.76
2022-12-18T02:01:47.329Z,1027.76
2022-12-18T02:02:47.260Z,1027.72
2022-12-18T02:03:47.101Z,1027.76
2022-12-18T02:04:49.515Z,1027.62
2022-12-18T02:05:47.063Z,1027.76
2022-12-18T02:06:47.084Z,1027.76
2022-12-18T02:07:47.037Z,1027.75
2022-12-18T02:08:47.031Z,1027.71
2022-12-18T02:09:47.088Z,1027.71
2022-12-18T02:10:47.008Z,1027.74
2022-12-18T02:11:47.029Z,1027.79
2022-12-18T02:12:47.095Z,1027.75
2022-12-18T02:13:46.989Z,1027.74
2022-12-18T02:14:46.996Z,1027.75
2022-12-18T02:15:46.965Z,1027.77
2022-12-18T02:16:47.030Z,1027.80
2022-12-18T02:17:46.947Z,1027.77
2022-12-18T02:18:46.932Z,1027.83
2022-12-18T02:19:46.928Z,1027.85
2022-12-18T02:20:46.948Z,1027.89
2022-12-18T02:21:47.000Z,1027.84
2022-12-18T02:22:46.901Z,1027.89
2022-12-18T02:23:46.932Z,1027.92
2022-12-18T02:24:46.885Z,1027.92
2022-12-18T02:25:46.872Z,1027.94
2022-12-18T02:26:46.852Z,1027.91
2022-12-18T02:27:46.855Z,1027.91
2022-12-18T02:28:46.930Z,1027.94
2022-12-18T02:29:46.854Z,1027.91
2022-12-18T02:30:46.856Z,1027.94
2022-12-18T02:31:46.815Z,1027.94
2022-12-18T02:32:46.800Z,1027.96
2022-12-18T02:33:46.805Z,1028.01
2022-12-18T02:34:46.783Z,1027.95
2022-12-18T02:35:46.796Z,1027.94
2022-12-18T02:36:46.769Z,1027.94
2022-12-18T02:37:46.747Z,1027.91
2022-12-18T02:38:46.738Z,1027.91
2022-12-18T02:39:46.740Z,1027.85
2022-12-18T02:40:46.725Z,1027.88
2022-12-18T02:41:46.728Z,1027.93
2022-12-18T02:42:46.729Z,1027.87
2022-12-18T02:43:46.686Z,1027.90
2022-12-18T02:44:46.783Z,1027.95
2022-12-18T02:45:46.729Z,1027.92
2022-12-18T02:46:46.714Z,1027.96
2022-12-18T02:47:46.677Z,1027.99
2022-12-18T02:48:46.648Z,1027.97
2022-12-18T02:49:46.638Z,1027.97
2022-12-18T02:50:46.617Z,1027.99
2022-12-18T02:51:46.607Z,1027.94
2022-12-18T02:52:46.605Z,1027.96
2022-12-18T02:53:46.613Z,1027.94
2022-12-18T02:54:46.591Z,1027.89
2022-12-18T02:55:46.565Z,1027.91
2022-12-18T02:56:46.573Z,1027.98
2022-12-18T02:57:46.559Z,1027.96
2022-12-18T02:58:46.554Z,1027.95
2022-12-18T02:59:46.555Z,1027.93
2022-12-18T03:00:46.614Z,1027.90
2022-12-18T03:01:46.610Z,1027.98
2022-12-18T03:02:46.574Z,1027.97
2022-12-18T03:03:46.489Z,1028.00
2022-12-18T03:04:46.482Z,1027.99
2022-12-18T03:05:46.482Z,1028.03
2022-12-18T03:06:46.460Z,1028.03
2022-12-18T03:07:46.484Z,1028.04
2022-12-18T03:08:46.443Z,1028.04
2022-12-18T03:09:46.443Z,1028.08
2022-12-18T03:10:46.437Z,1028.01
2022-12-18T03:11:46.442Z,1028.05
2022-12-18T03:12:46.421Z,1028.02
2022-12-18T03:13:46.413Z,1028.02
2022-12-18T03:14:46.395Z,1028.03
2022-12-18T03:15:46.390Z,1028.06
2022-12-18T03:16:46.536Z,1028.03
2022-12-18T03:17:46.352Z,1028.09
2022-12-18T03:18:46.363Z,1028.09
2022-12-18T03:19:46.334Z,1028.07
2022-12-18T03:20:46.338Z,1028.15
2022-12-18T03:21:46.337Z,1028.11
2022-12-18T03:22:46.317Z,1028.17
2022-12-18T03:23:46.309Z,1028.20
2022-12-18T03:24:46.286Z,1028.17
2022-12-18T03:25:46.309Z,1028.16
2022-12-18T03:26:46.268Z,1028.13
2022-12-18T03:27:46.267Z,1028.07
2022-12-18T03:28:46.252Z,1028.06
2022-12-18T03:29:46.251Z,1028.05
2022-12-18T03:30:46.279Z,1028.04
2022-12-18T03:31:46.251Z,1028.13
2022-12-18T03:32:46.294Z,1028.11
2022-12-18T03:33:46.230Z,1028.07
2022-12-18T03:34:46.214Z,1028.16
2022-12-18T03:35:46.191Z,1028.17
2022-12-18T03:36:46.203Z,1028.17
2022-12-18T03:37:46.164Z,1028.14
2022-12-18T03:38:46.165Z,1028.11
2022-12-18T03:39:46.149Z,1028.11
2022-12-18T03:40:46.148Z,1028.05
2022-12-18T03:41:46.145Z,1028.04
2022-12-18T03:42:46.133Z,1028.06
2022-12-18T03:43:46.121Z,1028.01
2022-12-18T03:44:46.092Z,1028.04
2022-12-18T03:45:46.133Z,1028.01
2022-12-18T03:46:46.099Z,1027.99
2022-12-18T03:47:46.059Z,1028.01
2022-12-18T03:48:46.145Z,1028.00
2022-12-18T03:49:46.054Z,1027.97
2022-12-18T03:50:46.060Z,1028.05
2022-12-18T03:51:46.052Z,1028.03
2022-12-18T03:52:46.023Z,1028.08
2022-12-18T03:53:46.006Z,1028.03
2022-12-18T03:54:46.003Z,1027.96
2022-12-18T03:55:45.985Z,1028.02
2022-12-18T03:56:45.971Z,1028.02
2022-12-18T03:57:46.007Z,1028.10
2022-12-18T03:58:45.966Z,1028.04
2022-12-18T03:59:45.957Z,1028.07
2022-12-18T04:00:45.944Z,1028.09
2022-12-18T04:01:46.077Z,1028.05
2022-12-18T04:02:46.080Z,1028.09
2022-12-18T04:03:46.204Z,1028.14
2022-12-18T04:04:46.011Z,1028.12
2022-12-18T04:05:45.886Z,1028.13
2022-12-18T04:06:45.884Z,1028.16
2022-12-18T04:07:45.872Z,1028.11
2022-12-18T04:08:45.857Z,1028.19
2022-12-18T04:09:45.854Z,1028.18
2022-12-18T04:10:45.865Z,1028.11
2022-12-18T04:11:45.829Z,1028.14
2022-12-18T04:12:45.827Z,1028.15
2022-12-18T04:13:45.825Z,1028.16
2022-12-18T04:14:45.797Z,1028.19
2022-12-18T04:15:45.837Z,1028.15
2022-12-18T04:16:45.791Z,1028.24
2022-12-18T04:17:45.762Z,1028.21
2022-12-18T04:18:45.757Z,1028.26
2022-12-18T04:19:45.757Z,1028.25
2022-12-18T04:20:45.840Z,1028.19
2022-12-18T04:21:45.722Z,1028.20
2022-12-18T04:22:45.728Z,1028.23
2022-12-18T04:23:45.748Z,1028.19
2022-12-18T04:24:45.731Z,1028.23
2022-12-18T04:25:45.687Z,1028.31
2022-12-18T04:26:45.672Z,1028.30
2022-12-18T04:27:45.666Z,1028.31
2022-12-18T04:28:45.666Z,1028.33
2022-12-18T04:29:45.643Z,1028.27
2022-12-18T04:30:45.677Z,1028.28
2022-12-18T04:31:45.626Z,1028.31
2022-12-18T04:32:51.917Z,1028.25
2022-12-18T04:33:46.818Z,1028.24
2022-12-18T04:34:45.609Z,1028.29
2022-12-18T04:35:45.631Z,1028.32
2022-12-18T04:36:45.677Z,1028.30
2022-12-18T04:37:45.563Z,1028.34
2022-12-18T04:38:45.558Z,1028.36
2022-12-18T04:39:45.551Z,1028.38
2022-12-18T04:40:45.557Z,1028.41
2022-12-18T04:41:45.533Z,1028.37
2022-12-18T04:42:45.544Z,1028.35
2022-12-18T04:43:45.515Z,1028.36
2022-12-18T04:44:45.509Z,1028.38
2022-12-18T04:45:45.480Z,1028.39
2022-12-18T04:46:45.606Z,1028.39
2022-12-18T04:47:45.480Z,1028.39
2022-12-18T04:48:45.454Z,1028.35
2022-12-18T04:49:45.442Z,1028.37
2022-12-18T04:50:45.455Z,1028.34
2022-12-18T04:51:45.422Z,1028.32
2022-12-18T04:52:45.506Z,1028.35
2022-12-18T04:53:45.422Z,1028.36
2022-12-18T04:54:45.398Z,1028.36
2022-12-18T04:55:45.405Z,1028.36
2022-12-18T04:56:45.382Z,1028.40
2022-12-18T04:57:45.361Z,1028.34
2022-12-18T04:58:45.368Z,1028.38
2022-12-18T04:59:45.344Z,1028.41
2022-12-18T05:00:45.346Z,1028.41
2022-12-18T05:01:45.456Z,1028.40
2022-12-18T05:02:45.425Z,1028.39
2022-12-18T05:03:45.698Z,1028.40
2022-12-18T05:04:45.305Z,1028.40
2022-12-18T05:05:45.287Z,1028.44
2022-12-18T05:06:45.271Z,1028.40
2022-12-18T05:07:45.263Z,1028.34
2022-12-18T05:08:45.351Z,1028.39
2022-12-18T05:09:45.253Z,1028.46
2022-12-18T05:10:45.239Z,1028.44
2022-12-18T05:11:45.221Z,1028.53
2022-12-18T05:12:45.207Z,1028.53
2022-12-18T05:13:45.220Z,1028.56
2022-12-18T05:14:45.199Z,1028.56
2022-12-18T05:15:45.199Z,1028.55
2022-12-18T05:16:45.178Z,1028.52
2022-12-18T05:17:45.158Z,1028.56
2022-12-18T05:18:45.168Z,1028.55
2022-12-18T05:19:45.173Z,1028.51
2022-12-18T05:20:45.147Z,1028.49
2022-12-18T05:21:45.144Z,1028.53
2022-12-18T05:22:45.105Z,1028.64
2022-12-18T05:23:45.112Z,1028.58
2022-12-18T05:24:45.189Z,1028.60
2022-12-18T05:25:45.089Z,1028.56
2022-12-18T05:26:45.092Z,1028.60
2022-12-18T05:27:45.063Z,1028.59
2022-12-18T05:28:45.046Z,1028.59
2022-12-18T05:29:45.044Z,1028.59
2022-12-18T05:30:45.025Z,1028.66
2022-12-18T05:31:45.100Z,1028.73
2022-12-18T05:32:45.015Z,1028.77
2022-12-18T05:33:45.011Z,1028.77
2022-12-18T05:34:44.985Z,1028.79
2022-12-18T05:35:44.985Z,1028.81
2022-12-18T05:36:44.964Z,1028.79
2022-12-18T05:37:44.980Z,1028.70
2022-12-18T05:38:44.958Z,1028.77
2022-12-18T05:39:44.947Z,1028.80
2022-12-18T05:40:45.032Z,1028.78
2022-12-18T05:41:44.917Z,1028.81
2022-12-18T05:42:44.930Z,1028.81
2022-12-18T05:43:44.922Z,1028.87
2022-12-18T05:44:44.886Z,1028.81
2022-12-18T05:45:44.886Z,1028.85
2022-12-18T05:46:44.912Z,1028.82
2022-12-18T05:47:44.880Z,1028.78
2022-12-18T05:48:44.875Z,1028.87
2022-12-18T05:49:44.840Z,1028.90
2022-12-18T05:50:44.842Z,1028.87
2022-12-18T05:51:44.832Z,1028.82
2022-12-18T05:52:44.823Z,1028.88
2022-12-18T05:53:44.801Z,1028.88
2022-12-18T05:54:44.788Z,1028.78
2022-12-18T05:55:44.779Z,1028.82
2022-12-18T05:56:48.616Z,1028.79
2022-12-18T05:57:44.752Z,1028.83
2022-12-18T05:58:44.753Z,1028.80
2022-12-18T05:59:44.734Z,1028.92
2022-12-18T06:00:44.730Z,1028.87
2022-12-18T06:01:44.874Z,1028.92
2022-12-18T06:02:44.837Z,1028.94
2022-12-18T06:03:45.169Z,1028.92
2022-12-18T06:04:44.702Z,1028.91
2022-12-18T06:05:44.672Z,1028.95
2022-12-18T06:06:44.675Z,1028.99
2022-12-18T06:07:44.664Z,1029.02
2022-12-18T06:08:46.897Z,1029.11
2022-12-18T06:09:44.665Z,1029.10
2022-12-18T06:10:44.640Z,1029.09
2022-12-18T06:11:44.639Z,1029.09
2022-12-18T06:12:44.697Z,1029.10
2022-12-18T06:13:44.598Z,1029.10
2022-12-18T06:14:44.619Z,1029.08
2022-12-18T06:15:44.578Z,1029.01
2022-12-18T06:16:44.570Z,1029.01
2022-12-18T06:17:44.552Z,1029.09
2022-12-18T06:18:44.546Z,1029.13
2022-12-18T06:19:44.540Z,1029.12
2022-12-18T06:20:44.548Z,1029.14
2022-12-18T06:21:44.605Z,1029.17
2022-12-18T06:22:44.522Z,1029.19
2022-12-18T06:23:44.515Z,1029.19
2022-12-18T06:24:44.493Z,1029.10
2022-12-18T06:25:44.490Z,1029.19
2022-12-18T06:26:44.472Z,1029.17
2022-12-18T06:27:44.460Z,1029.13
2022-12-18T06:28:44.538Z,1029.14
2022-12-18T06:29:44.442Z,1029.15
2022-12-18T06:30:44.416Z,1029.17
2022-12-18T06:31:44.490Z,1029.15
2022-12-18T06:32:44.437Z,1029.07
2022-12-18T06:33:44.387Z,1029.05
2022-12-18T06:34:45.293Z,1029.09
2022-12-18T06:35:44.374Z,1029.09
2022-12-18T06:36:44.373Z,1029.13
2022-12-18T06:37:44.356Z,1029.12
2022-12-18T06:38:44.345Z,1029.17
2022-12-18T06:39:44.340Z,1029.20
2022-12-18T06:40:44.330Z,1029.31
2022-12-18T06:41:44.327Z,1029.25
2022-12-18T06:42:44.318Z,1029.23
2022-12-18T06:43:44.299Z,1029.26
2022-12-18T06:44:44.383Z,1029.29
2022-12-18T06:45:44.357Z,1029.24
2022-12-18T06:46:44.261Z,1029.31
2022-12-18T06:47:44.277Z,1029.41
2022-12-18T06:48:44.258Z,1029.30
2022-12-18T06:49:44.235Z,1029.36
2022-12-18T06:50:44.221Z,1029.39
2022-12-18T06:51:44.212Z,1029.33
2022-12-18T06:52:44.202Z,1029.40
2022-12-18T06:53:44.207Z,1029.41
2022-12-18T06:54:44.209Z,1029.47
2022-12-18T06:55:44.169Z,1029.51
2022-12-18T06:56:52.400Z,1029.56
2022-12-18T06:57:44.158Z,1029.54
2022-12-18T06:58:44.161Z,1029.56
2022-12-18T06:59:44.137Z,1029.52
2022-12-18T07:00:44.303Z,1029.54
2022-12-18T07:03:16.210Z,1029.45
2022-12-18T07:04:16.728Z,1029.55
2022-12-18T07:05:16.129Z,1029.55
2022-12-18T07:06:16.122Z,1029.54
2022-12-18T07:07:16.126Z,1029.58
2022-12-18T07:08:16.110Z,1029.50
2022-12-18T07:09:16.088Z,1029.54
2022-12-18T07:10:16.143Z,1029.55
2022-12-18T07:11:16.239Z,1029.52
2022-12-18T07:12:16.062Z,1029.51
2022-12-18T07:13:16.079Z,1029.42
2022-12-18T07:14:16.049Z,1029.47
2022-12-18T07:15:16.041Z,1029.46
2022-12-18T07:16:21.122Z,1029.46
2022-12-18T07:17:16.026Z,1029.54
2022-12-18T07:18:16.023Z,1029.53
2022-12-18T07:19:16.010Z,1029.51
2022-12-18T07:20:16.006Z,1029.64
2022-12-18T07:21:15.982Z,1029.64
2022-12-18T07:22:15.973Z,1029.54
2022-12-18T07:23:15.952Z,1029.54
2022-12-18T07:24:15.976Z,1029.54
2022-12-18T07:25:15.949Z,1029.56
2022-12-18T07:26:15.928Z,1029.50
2022-12-18T07:27:15.908Z,1029.47
2022-12-18T07:28:17.610Z,1029.46
2022-12-18T07:29:15.924Z,1029.51
2022-12-18T07:30:15.887Z,1029.44
2022-12-18T07:31:15.998Z,1029.51
2022-12-18T07:32:15.962Z,1029.50
2022-12-18T07:33:15.872Z,1029.50
2022-12-18T07:34:15.862Z,1029.54
2022-12-18T07:35:17.484Z,1029.51
2022-12-18T07:36:15.842Z,1029.57
2022-12-18T07:37:15.840Z,1029.56
2022-12-18T07:38:15.814Z,1029.57
2022-12-18T07:39:15.803Z,1029.55
2022-12-18T07:40:15.809Z,1029.57
2022-12-18T07:41:15.798Z,1029.54
2022-12-18T07:42:15.771Z,1029.56
2022-12-18T07:43:15.791Z,1029.55
2022-12-18T07:44:15.759Z,1029.52
2022-12-18T07:45:15.746Z,1029.52
2022-12-18T07:46:15.796Z,1029.47
2022-12-18T07:47:15.733Z,1029.49
2022-12-18T07:48:15.804Z,1029.45
2022-12-18T07:49:15.700Z,1029.48
2022-12-18T07:50:15.691Z,1029.49
2022-12-18T07:51:15.688Z,1029.55
2022-12-18T07:52:15.715Z,1029.55
2022-12-18T07:53:15.663Z,1029.54
2022-12-18T07:54:15.674Z,1029.44
2022-12-18T07:55:15.666Z,1029.50
2022-12-18T07:56:27.314Z,1029.42
2022-12-18T07:57:34.067Z,1029.38
2022-12-18T07:58:15.640Z,1029.35
2022-12-18T07:59:15.615Z,1029.42
2022-12-18T08:00:15.593Z,1029.41
2022-12-18T08:01:15.664Z,1029.41
2022-12-18T08:02:15.722Z,1029.42
2022-12-18T08:03:15.669Z,1029.52
2022-12-18T08:04:15.663Z,1029.55
2022-12-18T08:05:15.567Z,1029.56
2022-12-18T08:06:15.543Z,1029.64
2022-12-18T08:07:15.532Z,1029.58
2022-12-18T08:08:15.531Z,1029.65
2022-12-18T08:09:15.511Z,1029.62
2022-12-18T08:10:15.517Z,1029.61
2022-12-18T08:11:15.502Z,1029.65
2022-12-18T08:12:15.477Z,1029.60
2022-12-18T08:13:15.538Z,1029.65
2022-12-18T08:14:15.467Z,1029.64
2022-12-18T08:15:15.471Z,1029.56
2022-12-18T08:16:15.477Z,1029.65
2022-12-18T08:17:15.421Z,1029.60
2022-12-18T08:18:15.434Z,1029.67
2022-12-18T08:19:15.416Z,1029.64
2022-12-18T08:20:15.513Z,1029.65
2022-12-18T08:21:15.400Z,1029.70
2022-12-18T08:22:24.827Z,1029.73
2022-12-18T08:23:15.362Z,1029.74
2022-12-18T08:24:15.721Z,1029.67
2022-12-18T08:25:15.379Z,1029.70
2022-12-18T08:26:15.345Z,1029.71
2022-12-18T08:27:30.741Z,1029.69
2022-12-18T08:28:15.333Z,1029.72
2022-12-18T08:29:21.269Z,1029.64
2022-12-18T08:30:15.309Z,1029.66
2022-12-18T08:31:15.344Z,1029.68
2022-12-18T08:32:15.352Z,1029.76
2022-12-18T08:33:15.291Z,1029.74
2022-12-18T08:34:15.265Z,1029.80
2022-12-18T08:35:18.635Z,1029.73
2022-12-18T08:36:15.328Z,1029.80
2022-12-18T08:37:15.233Z,1029.75
2022-12-18T08:38:15.250Z,1029.78
2022-12-18T08:39:15.297Z,1029.76
2022-12-18T08:40:15.200Z,1029.83
2022-12-18T08:41:15.208Z,1029.83
2022-12-18T08:42:15.185Z,1029.78
2022-12-18T08:43:15.189Z,1029.81
2022-12-18T08:44:15.181Z,1029.85
2022-12-18T08:45:15.172Z,1029.91
2022-12-18T08:46:15.227Z,1029.90
2022-12-18T08:47:15.150Z,1029.91
2022-12-18T08:48:20.609Z,1029.94
2022-12-18T08:49:15.283Z,1029.90
2022-12-18T08:50:15.112Z,1029.92
2022-12-18T08:51:15.102Z,1029.86
2022-12-18T08:52:15.196Z,1029.94
2022-12-18T08:53:15.072Z,1030.00
2022-12-18T08:54:15.248Z,1030.02
2022-12-18T08:55:15.066Z,1030.03
2022-12-18T08:56:15.039Z,1030.06
2022-12-18T08:57:15.049Z,1030.07
2022-12-18T08:58:15.024Z,1030.10
2022-12-18T08:59:19.331Z,1030.10
2022-12-18T09:00:15.011Z,1030.12
2022-12-18T09:01:15.272Z,1030.12
2022-12-18T09:02:15.110Z,1030.08
2022-12-18T09:03:15.046Z,1030.14
2022-12-18T09:04:14.956Z,1030.10
2022-12-18T09:05:14.990Z,1030.06
2022-12-18T09:06:14.977Z,1030.06
2022-12-18T09:07:14.942Z,1030.11
2022-12-18T09:08:15.019Z,1030.08
2022-12-18T09:09:14.932Z,1030.12
2022-12-18T09:10:14.903Z,1030.15
2022-12-18T09:11:14.957Z,1030.19
2022-12-18T09:12:14.902Z,1030.20
2022-12-18T09:13:14.875Z,1030.24
2022-12-18T09:14:14.873Z,1030.30
2022-12-18T09:15:14.869Z,1030.25
2022-12-18T09:16:14.896Z,1030.25
2022-12-18T09:17:14.940Z,1030.17
2022-12-18T09:18:14.823Z,1030.18
2022-12-18T09:19:14.854Z,1030.19
2022-12-18T09:20:14.996Z,1030.22
2022-12-18T09:21:14.814Z,1030.25
2022-12-18T09:22:14.798Z,1030.26
2022-12-18T09:23:14.826Z,1030.23
2022-12-18T09:24:14.880Z,1030.23
2022-12-18T09:25:14.759Z,1030.26
2022-12-18T09:26:14.768Z,1030.17
2022-12-18T09:27:14.754Z,1030.22
2022-12-18T09:28:14.757Z,1030.18
2022-12-18T09:29:14.800Z,1030.18
2022-12-18T09:30:14.740Z,1030.22
2022-12-18T09:31:15.351Z,1030.24
2022-12-18T09:32:20.504Z,1030.28
2022-12-18T09:33:14.719Z,1030.27
2022-12-18T09:34:14.678Z,1030.25
2022-12-18T09:35:14.726Z,1030.21
2022-12-18T09:36:14.673Z,1030.20
2022-12-18T09:37:14.661Z,1030.20
2022-12-18T09:38:14.645Z,1030.12
2022-12-18T09:39:14.628Z,1030.13
2022-12-18T09:40:14.726Z,1030.10
2022-12-18T09:41:14.619Z,1030.10
2022-12-18T09:42:14.602Z,1030.07
2022-12-18T09:43:14.582Z,1030.07
2022-12-18T09:44:14.650Z,1030.01
2022-12-18T09:45:14.610Z,1029.98
2022-12-18T09:48:19.875Z,1030.03
2022-12-18T09:49:19.888Z,1030.03
2022-12-18T09:50:19.864Z,1030.01
2022-12-18T09:51:19.830Z,1029.95
2022-12-18T09:52:19.838Z,1030.01
2022-12-18T09:53:19.823Z,1029.96
2022-12-18T09:54:19.826Z,1029.98
2022-12-18T09:55:19.894Z,1029.90
2022-12-18T09:56:19.880Z,1029.90
2022-12-18T09:57:19.817Z,1029.87
2022-12-18T09:58:19.773Z,1029.82
2022-12-18T09:59:19.760Z,1029.84
2022-12-18T10:00:19.771Z,1029.76
2022-12-18T10:01:19.856Z,1029.77
2022-12-18T10:02:19.821Z,1029.74
2022-12-18T10:03:19.737Z,1029.75
2022-12-18T10:04:19.841Z,1029.69
2022-12-18T10:05:19.696Z,1029.69
2022-12-18T10:06:19.712Z,1029.72
2022-12-18T10:07:19.689Z,1029.72
2022-12-18T10:08:19.693Z,1029.67
2022-12-18T10:09:19.682Z,1029.62
2022-12-18T10:10:19.645Z,1029.63
2022-12-18T10:11:19.745Z,1029.64
2022-12-18T10:12:19.631Z,1029.60
2022-12-18T10:13:19.649Z,1029.58
2022-12-18T10:14:19.611Z,1029.64
2022-12-18T10:15:19.614Z,1029.55
2022-12-18T10:16:20.223Z,1029.57
2022-12-18T10:17:19.592Z,1029.57
2022-12-18T10:18:22.070Z,1029.59
2022-12-18T10:19:19.564Z,1029.58
2022-12-18T10:20:19.615Z,1029.55
2022-12-18T10:21:19.559Z,1029.56
2022-12-18T10:22:19.567Z,1029.57
2022-12-18T10:23:19.555Z,1029.61
2022-12-18T10:24:19.526Z,1029.60
2022-12-18T10:25:19.521Z,1029.58
2022-12-18T10:26:19.504Z,1029.58
2022-12-18T10:27:19.600Z,1029.56
2022-12-18T10:28:19.510Z,1029.55
2022-12-18T10:29:19.521Z,1029.56
2022-12-18T10:30:19.643Z,1029.58
2022-12-18T10:31:19.580Z,1029.52
2022-12-18T10:32:19.459Z,1029.56
2022-12-18T10:33:19.543Z,1029.50
2022-12-18T10:34:19.513Z,1029.52
2022-12-18T10:35:19.410Z,1029.46
2022-12-18T10:36:19.427Z,1029.54
2022-12-18T10:37:19.520Z,1029.45
2022-12-18T10:38:19.385Z,1029.48
2022-12-18T10:39:19.386Z,1029.48
2022-12-18T10:40:22.671Z,1029.40
2022-12-18T10:41:19.377Z,1029.37
2022-12-18T10:42:19.347Z,1029.42
2022-12-18T10:43:19.441Z,1029.39
2022-12-18T10:44:19.344Z,1029.36
2022-12-18T10:45:19.331Z,1029.34
2022-12-18T10:46:19.443Z,1029.39
2022-12-18T10:47:19.311Z,1029.36
2022-12-18T10:48:19.318Z,1029.37
2022-12-18T10:49:19.441Z,1029.29
2022-12-18T10:50:19.344Z,1029.21
2022-12-18T10:51:19.277Z,1029.30
2022-12-18T10:52:19.338Z,1029.21
2022-12-18T10:53:19.263Z,1029.26
2022-12-18T10:54:19.244Z,1029.25
2022-12-18T10:55:19.249Z,1029.26
2022-12-18T10:56:19.242Z,1029.10
2022-12-18T10:57:19.235Z,1029.20
2022-12-18T10:58:24.966Z,1029.16
2022-12-18T10:59:19.301Z,1029.14
2022-12-18T11:00:19.206Z,1029.21
2022-12-18T11:01:19.250Z,1029.14
2022-12-18T11:02:19.265Z,1029.19
2022-12-18T11:03:19.219Z,1029.18
2022-12-18T11:04:19.156Z,1029.22
2022-12-18T11:05:19.148Z,1029.17
2022-12-18T11:06:19.137Z,1029.08
2022-12-18T11:07:19.114Z,1029.09
2022-12-18T11:08:19.115Z,1029.09
2022-12-18T11:09:19.115Z,1029.02
2022-12-18T11:10:19.115Z,1029.06
2022-12-18T11:11:19.112Z,1029.06
2022-12-18T11:12:19.723Z,1029.09
2022-12-18T11:13:19.062Z,1029.18
2022-12-18T11:14:19.050Z,1029.16
2022-12-18T11:15:19.161Z,1029.21
2022-12-18T11:16:19.098Z,1029.13
2022-12-18T11:17:27.006Z,1029.16
2022-12-18T11:20:11.474Z,1029.14
2022-12-18T11:21:11.476Z,1029.11
2022-12-18T11:22:11.445Z,1029.09
2022-12-18T11:23:11.435Z,1029.09
2022-12-18T11:24:11.426Z,1029.08
2022-12-18T11:26:13.633Z,1029.10
2022-12-18T11:27:11.748Z,1029.07
2022-12-18T11:28:11.536Z,1029.11
2022-12-18T11:31:51.302Z,1029.10
2022-12-18T11:32:51.167Z,1029.10
2022-12-18T11:34:19.752Z,1029.11
2022-12-18T11:34:55.948Z,1029.04
2022-12-18T11:35:51.130Z,1029.08
2022-12-18T11:36:51.138Z,1029.07
2022-12-18T11:37:51.830Z,1029.03
2022-12-18T11:38:51.149Z,1029.05
2022-12-18T11:39:53.475Z,1029.00
2022-12-18T11:40:51.183Z,1029.04
2022-12-18T11:41:51.085Z,1028.97
2022-12-18T11:42:51.071Z,1029.08
2022-12-18T11:43:51.058Z,1029.07
2022-12-18T11:44:51.065Z,1029.15
2022-12-18T11:45:51.214Z,1029.16
2022-12-18T11:46:51.094Z,1029.17
2022-12-18T11:47:51.104Z,1029.14
2022-12-18T11:48:50.999Z,1029.25
2022-12-18T11:49:51.002Z,1029.22
2022-12-18T11:50:51.009Z,1029.20
2022-12-18T11:51:50.997Z,1029.21
2022-12-18T11:52:56.538Z,1029.29
2022-12-18T11:53:50.959Z,1029.32
2022-12-18T11:54:50.949Z,1029.32
2022-12-18T11:55:50.955Z,1029.36
2022-12-18T11:56:50.977Z,1029.31
2022-12-18T11:57:50.979Z,1029.31
2022-12-18T11:58:50.961Z,1029.32
2022-12-18T11:59:50.926Z,1029.30
2022-12-18T12:00:50.907Z,1029.34
2022-12-18T12:01:51.044Z,1029.38
2022-12-18T12:02:50.948Z,1029.34
2022-12-18T12:03:51.044Z,1029.36
2022-12-18T12:04:50.875Z,1029.33
2022-12-18T12:05:50.865Z,1029.40
2022-12-18T12:06:50.844Z,1029.33
2022-12-18T12:07:50.897Z,1029.37
2022-12-18T12:08:50.832Z,1029.40
2022-12-18T12:09:50.817Z,1029.37
2022-12-18T12:10:50.824Z,1029.35
2022-12-18T12:11:50.811Z,1029.33
2022-12-18T12:12:50.860Z,1029.29
2022-12-18T12:13:50.795Z,1029.34
2022-12-18T12:14:50.934Z,1029.34